sensor_id;sensor_type;location;lat;lon;timestamp;pressure;altitude;pressure_sealevel;temperature;humidity
48517;BME280;34310;51.904;4.256;2023-07-02T00:00:07;100832.94;;;23.42;52.18
48517;BME280;34310;51.904;4.256;2023-07-02T00:02:35;100832.94;;;23.42;52.52
48517;BME280;34310;51.904;4.256;2023-07-02T00:05:04;100825.03;;;23.42;52.55
48517;BME280;34310;51.904;4.256;2023-07-02T00:07:31;100826.78;;;23.42;52.44
48517;BME280;34310;51.904;4.256;2023-07-02T00:10:00;100836.41;;;23.41;52.28
48517;BME280;34310;51.904;4.256;2023-07-02T00:12:27;100837.28;;;23.40;52.49
48517;BME280;34310;51.904;4.256;2023-07-02T00:14:54;100836.41;;;23.41;52.46
48517;BME280;34310;51.904;4.256;2023-07-02T00:17:22;100834.63;;;23.40;52.50
48517;BME280;34310;51.904;4.256;2023-07-02T00:19:50;100832.88;;;23.41;52.28
48517;BME280;34310;51.904;4.256;2023-07-02T00:22:20;100834.63;;;23.40;52.26
48517;BME280;34310;51.904;4.256;2023-07-02T00:24:48;100832.84;;;23.39;52.33
48517;BME280;34310;51.904;4.256;2023-07-02T00:27:17;100831.97;;;23.39;52.51
48517;BME280;34310;51.904;4.256;2023-07-02T00:29:45;100841.63;;;23.38;52.32
48517;BME280;34310;51.904;4.256;2023-07-02T00:32:12;100840.75;;;23.38;52.58
48517;BME280;34310;51.904;4.256;2023-07-02T00:34:39;100841.63;;;23.38;52.46
48517;BME280;34310;51.904;4.256;2023-07-02T00:37:07;100839.00;;;23.38;52.50
48517;BME280;34310;51.904;4.256;2023-07-02T00:39:34;100838.09;;;23.38;52.36
48517;BME280;34310;51.904;4.256;2023-07-02T00:42:02;100840.72;;;23.36;52.45
48517;BME280;34310;51.904;4.256;2023-07-02T00:44:30;100838.97;;;23.37;52.38
48517;BME280;34310;51.904;4.256;2023-07-02T00:46:58;100846.88;;;23.37;52.45
48517;BME280;34310;51.904;4.256;2023-07-02T00:49:25;100847.72;;;23.36;52.52
48517;BME280;34310;51.904;4.256;2023-07-02T00:51:54;100848.63;;;23.36;52.33
48517;BME280;34310;51.904;4.256;2023-07-02T00:54:22;100840.69;;;23.35;52.52
48517;BME280;34310;51.904;4.256;2023-07-02T00:56:49;100839.78;;;23.34;52.38
48517;BME280;34310;51.904;4.256;2023-07-02T00:59:17;100839.78;;;23.34;52.29
48517;BME280;34310;51.904;4.256;2023-07-02T01:01:45;100845.94;;;23.35;52.38
48517;BME280;34310;51.904;4.256;2023-07-02T01:04:18;100849.44;;;23.34;52.53
48517;BME280;34310;51.904;4.256;2023-07-02T01:06:45;100847.66;;;23.33;52.47
48517;BME280;34310;51.904;4.256;2023-07-02T01:09:13;100856.47;;;23.33;52.53
48517;BME280;34310;51.904;4.256;2023-07-02T01:11:43;100852.06;;;23.32;52.33
48517;BME280;34310;51.904;4.256;2023-07-02T01:14:21;100854.69;;;23.32;52.30
48517;BME280;34310;51.904;4.256;2023-07-02T01:16:49;100854.66;;;23.31;52.55
48517;BME280;34310;51.904;4.256;2023-07-02T01:22:08;100859.03;;;23.30;52.46
48517;BME280;34310;51.904;4.256;2023-07-02T01:24:38;100857.25;;;23.29;52.56
48517;BME280;34310;51.904;4.256;2023-07-02T01:27:06;100859.91;;;23.29;52.41
48517;BME280;34310;51.904;4.256;2023-07-02T01:29:33;100857.25;;;23.29;52.48
48517;BME280;34310;51.904;4.256;2023-07-02T01:32:04;100857.25;;;23.28;52.35
48517;BME280;34310;51.904;4.256;2023-07-02T01:34:32;100854.59;;;23.28;52.54
48517;BME280;34310;51.904;4.256;2023-07-02T01:37:00;100851.09;;;23.27;52.50
48517;BME280;34310;51.904;4.256;2023-07-02T01:39:27;100858.97;;;23.27;52.69
48517;BME280;34310;51.904;4.256;2023-07-02T01:42:07;100863.38;;;23.27;52.34
48517;BME280;34310;51.904;4.256;2023-07-02T01:44:35;100858.06;;;23.25;52.57
48517;BME280;34310;51.904;4.256;2023-07-02T01:47:03;100852.81;;;23.25;52.56
48517;BME280;34310;51.904;4.256;2023-07-02T01:49:30;100856.31;;;23.26;52.46
48517;BME280;34310;51.904;4.256;2023-07-02T01:51:58;100857.19;;;23.25;52.38
48517;BME280;34310;51.904;4.256;2023-07-02T01:54:26;100853.66;;;23.24;52.64
48517;BME280;34310;51.904;4.256;2023-07-02T01:56:55;100858.03;;;23.24;52.69
48517;BME280;34310;51.904;4.256;2023-07-02T01:59:23;100857.16;;;23.23;52.59
48517;BME280;34310;51.904;4.256;2023-07-02T02:01:52;100856.25;;;23.23;52.33
48517;BME280;34310;51.904;4.256;2023-07-02T02:04:19;100857.13;;;23.22;52.42
48517;BME280;34310;51.904;4.256;2023-07-02T02:06:47;100868.53;;;23.21;52.36
48517;BME280;34310;51.904;4.256;2023-07-02T02:09:14;100867.63;;;23.20;52.26
48517;BME280;34310;51.904;4.256;2023-07-02T02:11:45;100859.69;;;23.18;52.36
48517;BME280;34310;51.904;4.256;2023-07-02T02:14:13;100864.97;;;23.18;52.50
48517;BME280;34310;51.904;4.256;2023-07-02T02:16:40;100869.34;;;23.18;52.47
48517;BME280;34310;51.904;4.256;2023-07-02T02:19:07;100871.94;;;23.16;52.39
48517;BME280;34310;51.904;4.256;2023-07-02T02:21:35;100877.22;;;23.16;52.37
48517;BME280;34310;51.904;4.256;2023-07-02T02:24:02;100875.44;;;23.15;52.36
48517;BME280;34310;51.904;4.256;2023-07-02T02:26:29;100882.47;;;23.15;52.33
48517;BME280;34310;51.904;4.256;2023-07-02T02:28:57;100872.78;;;23.14;52.29
48517;BME280;34310;51.904;4.256;2023-07-02T02:31:24;100875.41;;;23.14;52.34
48517;BME280;34310;51.904;4.256;2023-07-02T02:33:52;100880.69;;;23.14;52.32
48517;BME280;34310;51.904;4.256;2023-07-02T02:36:19;100882.44;;;23.13;52.55
48517;BME280;34310;51.904;4.256;2023-07-02T02:38:46;100877.09;;;23.12;52.53
48517;BME280;34310;51.904;4.256;2023-07-02T02:41:14;100878.84;;;23.11;52.56
48517;BME280;34310;51.904;4.256;2023-07-02T02:43:44;100883.19;;;23.09;52.41
48517;BME280;34310;51.904;4.256;2023-07-02T02:46:12;100884.94;;;23.09;52.41
48517;BME280;34310;51.904;4.256;2023-07-02T02:48:40;100884.06;;;23.08;52.33
48517;BME280;34310;51.904;4.256;2023-07-02T02:51:07;100889.31;;;23.08;52.57
48517;BME280;34310;51.904;4.256;2023-07-02T02:53:34;100884.03;;;23.07;52.38
48517;BME280;34310;51.904;4.256;2023-07-02T02:56:02;100897.19;;;23.07;52.51
48517;BME280;34310;51.904;4.256;2023-07-02T02:58:30;100893.66;;;23.06;52.58
48517;BME280;34310;51.904;4.256;2023-07-02T03:00:57;100893.66;;;23.06;52.39
48517;BME280;34310;51.904;4.256;2023-07-02T03:03:25;100898.94;;;23.06;52.50
48517;BME280;34310;51.904;4.256;2023-07-02T03:05:52;100898.91;;;23.05;52.73
48517;BME280;34310;51.904;4.256;2023-07-02T03:08:19;100905.06;;;23.05;52.56
48517;BME280;34310;51.904;4.256;2023-07-02T03:10:47;100904.13;;;23.03;52.66
48517;BME280;34310;51.904;4.256;2023-07-02T03:13:15;100912.94;;;23.04;52.58
48517;BME280;34310;51.904;4.256;2023-07-02T03:15:42;100900.63;;;23.03;52.55
48517;BME280;34310;51.904;4.256;2023-07-02T03:18:10;100901.47;;;23.02;52.53
48517;BME280;34310;51.904;4.256;2023-07-02T03:20:37;100900.59;;;23.01;52.63
48517;BME280;34310;51.904;4.256;2023-07-02T03:23:04;100902.34;;;23.01;52.63
48517;BME280;34310;51.904;4.256;2023-07-02T03:25:32;100907.59;;;23.01;52.46
48517;BME280;34310;51.904;4.256;2023-07-02T03:27:59;100912.88;;;23.01;52.63
48517;BME280;34310;51.904;4.256;2023-07-02T03:30:27;100911.09;;;23.00;52.74
48517;BME280;34310;51.904;4.256;2023-07-02T03:32:54;100911.06;;;22.98;52.65
48517;BME280;34310;51.904;4.256;2023-07-02T03:35:22;100906.66;;;22.97;52.64
48517;BME280;34310;51.904;4.256;2023-07-02T03:37:49;100912.78;;;22.96;52.46
48517;BME280;34310;51.904;4.256;2023-07-02T03:40:16;100910.16;;;22.98;52.63
48517;BME280;34310;51.904;4.256;2023-07-02T03:42:44;100907.50;;;22.96;52.44
48517;BME280;34310;51.904;4.256;2023-07-02T03:45:11;100910.13;;;22.96;52.48
48517;BME280;34310;51.904;4.256;2023-07-02T03:47:38;100910.09;;;22.95;52.59
48517;BME280;34310;51.904;4.256;2023-07-02T03:50:06;100917.13;;;22.94;52.60
48517;BME280;34310;51.904;4.256;2023-07-02T03:52:33;100918.88;;;22.94;52.60
48517;BME280;34310;51.904;4.256;2023-07-02T03:55:00;100913.56;;;22.92;52.70
48517;BME280;34310;51.904;4.256;2023-07-02T03:57:28;100915.31;;;22.92;52.53
48517;BME280;34310;51.904;4.256;2023-07-02T03:59:55;100924.09;;;22.92;52.68
48517;BME280;34310;51.904;4.256;2023-07-02T04:02:23;100920.53;;;22.90;52.70
48517;BME280;34310;51.904;4.256;2023-07-02T04:04:50;100924.97;;;22.91;52.78
48517;BME280;34310;51.904;4.256;2023-07-02T04:07:17;100924.91;;;22.90;52.69
48517;BME280;34310;51.904;4.256;2023-07-02T04:09:45;100931.03;;;22.89;52.64
48517;BME280;34310;51.904;4.256;2023-07-02T04:12:12;100928.41;;;22.89;52.79
48517;BME280;34310;51.904;4.256;2023-07-02T04:14:40;100935.41;;;22.88;52.56
48517;BME280;34310;51.904;4.256;2023-07-02T04:17:07;100948.59;;;22.88;52.78
48517;BME280;34310;51.904;4.256;2023-07-02T04:19:34;100937.16;;;22.88;52.66
48517;BME280;34310;51.904;4.256;2023-07-02T04:22:02;100938.03;;;22.86;52.74
48517;BME280;34310;51.904;4.256;2023-07-02T04:24:30;100951.19;;;22.86;52.85
48517;BME280;34310;51.904;4.256;2023-07-02T04:26:57;100950.28;;;22.86;52.74
48517;BME280;34310;51.904;4.256;2023-07-02T04:29:46;100941.50;;;22.85;52.54
48517;BME280;34310;51.904;4.256;2023-07-02T04:32:14;100951.97;;;22.84;52.53
48517;BME280;34310;51.904;4.256;2023-07-02T04:34:41;100948.53;;;22.85;52.73
48517;BME280;34310;51.904;4.256;2023-07-02T04:37:09;100953.72;;;22.83;52.66
48517;BME280;34310;51.904;4.256;2023-07-02T04:39:37;100960.72;;;22.83;52.61
48517;BME280;34310;51.904;4.256;2023-07-02T04:42:05;100964.25;;;22.83;52.79
48517;BME280;34310;51.904;4.256;2023-07-02T04:44:32;100961.63;;;22.83;52.55
48517;BME280;34310;51.904;4.256;2023-07-02T04:47:02;100967.72;;;22.82;52.81
48517;BME280;34310;51.904;4.256;2023-07-02T04:49:29;100964.22;;;22.82;52.75
48517;BME280;34310;51.904;4.256;2023-07-02T04:51:57;100972.13;;;22.82;52.91
48517;BME280;34310;51.904;4.256;2023-07-02T04:54:24;100972.13;;;22.82;52.75
48517;BME280;34310;51.904;4.256;2023-07-02T04:56:51;100968.59;;;22.81;52.91
48517;BME280;34310;51.904;4.256;2023-07-02T04:59:21;100979.94;;;22.80;52.76
48517;BME280;34310;51.904;4.256;2023-07-02T05:01:48;100977.31;;;22.80;52.91
48517;BME280;34310;51.904;4.256;2023-07-02T05:04:16;100971.16;;;22.80;52.76
48517;BME280;34310;51.904;4.256;2023-07-02T05:06:43;100972.03;;;22.80;52.93
48517;BME280;34310;51.904;4.256;2023-07-02T05:09:11;100971.16;;;22.80;52.72
48517;BME280;34310;51.904;4.256;2023-07-02T05:11:38;100979.06;;;22.80;52.65
48517;BME280;34310;51.904;4.256;2023-07-02T05:14:05;100983.44;;;22.79;52.93
48517;BME280;34310;51.904;4.256;2023-07-02T05:16:33;100982.53;;;22.79;52.68
48517;BME280;34310;51.904;4.256;2023-07-02T05:19:00;100993.97;;;22.79;53.03
48517;BME280;34310;51.904;4.256;2023-07-02T05:21:27;100988.69;;;22.79;52.76
48517;BME280;34310;51.904;4.256;2023-07-02T05:23:55;100987.78;;;22.77;52.71
48517;BME280;34310;51.904;4.256;2023-07-02T05:26:22;100986.03;;;22.78;52.77
48517;BME280;34310;51.904;4.256;2023-07-02T05:28:49;100993.03;;;22.77;52.80
48517;BME280;34310;51.904;4.256;2023-07-02T05:31:17;101004.44;;;22.78;52.78
48517;BME280;34310;51.904;4.256;2023-07-02T05:33:44;101004.44;;;22.78;52.77
48517;BME280;34310;51.904;4.256;2023-07-02T05:36:12;101003.56;;;22.77;52.88
48517;BME280;34310;51.904;4.256;2023-07-02T05:38:39;101011.50;;;22.79;52.99
48517;BME280;34310;51.904;4.256;2023-07-02T05:41:06;101009.69;;;22.76;53.03
48517;BME280;34310;51.904;4.256;2023-07-02T05:43:34;101018.47;;;22.77;52.81
48517;BME280;34310;51.904;4.256;2023-07-02T05:46:01;101013.22;;;22.77;52.91
48517;BME280;34310;51.904;4.256;2023-07-02T05:48:28;101021.09;;;22.77;52.71
48517;BME280;34310;51.904;4.256;2023-07-02T05:50:56;101029.00;;;22.77;52.85
48517;BME280;34310;51.904;4.256;2023-07-02T05:53:23;101029.00;;;22.77;52.72
48517;BME280;34310;51.904;4.256;2023-07-02T05:55:50;101022.84;;;22.76;52.78
48517;BME280;34310;51.904;4.256;2023-07-02T05:58:18;101030.75;;;22.76;52.91
48517;BME280;34310;51.904;4.256;2023-07-02T06:00:45;101036.00;;;22.76;52.89
48517;BME280;34310;51.904;4.256;2023-07-02T06:03:20;101032.47;;;22.76;52.68
48517;BME280;34310;51.904;4.256;2023-07-02T06:05:48;101029.84;;;22.76;52.94
48517;BME280;34310;51.904;4.256;2023-07-02T06:08:19;101043.00;;;22.76;52.70
48517;BME280;34310;51.904;4.256;2023-07-02T06:10:47;101043.00;;;22.76;52.93
48517;BME280;34310;51.904;4.256;2023-07-02T06:13:16;101044.78;;;22.77;52.92
48517;BME280;34310;51.904;4.256;2023-07-02T06:15:43;101044.75;;;22.75;52.85
48517;BME280;34310;51.904;4.256;2023-07-02T06:18:11;101041.28;;;22.76;52.94
48517;BME280;34310;51.904;4.256;2023-07-02T06:20:38;101046.53;;;22.76;52.77
48517;BME280;34310;51.904;4.256;2023-07-02T06:23:06;101043.91;;;22.76;52.68
48517;BME280;34310;51.904;4.256;2023-07-02T06:25:33;101036.00;;;22.76;52.78
48517;BME280;34310;51.904;4.256;2023-07-02T06:28:00;101047.38;;;22.75;52.83
48517;BME280;34310;51.904;4.256;2023-07-02T06:30:28;101049.16;;;22.76;52.92
48517;BME280;34310;51.904;4.256;2023-07-02T06:32:55;101046.53;;;22.76;52.73
48517;BME280;34310;51.904;4.256;2023-07-02T06:35:23;101050.91;;;22.76;52.89
48517;BME280;34310;51.904;4.256;2023-07-02T06:37:50;101055.31;;;22.77;52.72
48517;BME280;34310;51.904;4.256;2023-07-02T06:40:18;101066.75;;;22.77;52.64
48517;BME280;34310;51.904;4.256;2023-07-02T06:42:45;101057.06;;;22.76;52.84
48517;BME280;34310;51.904;4.256;2023-07-02T06:45:12;101062.31;;;22.76;52.56
48517;BME280;34310;51.904;4.256;2023-07-02T06:47:40;101062.31;;;22.76;52.63
48517;BME280;34310;51.904;4.256;2023-07-02T06:50:07;101066.69;;;22.76;52.58
48517;BME280;34310;51.904;4.256;2023-07-02T06:52:35;101080.75;;;22.76;52.57
48517;BME280;34310;51.904;4.256;2023-07-02T06:55:04;101085.13;;;22.76;52.59
48517;BME280;34310;51.904;4.256;2023-07-02T06:57:31;101079.88;;;22.76;52.65
48517;BME280;34310;51.904;4.256;2023-07-02T06:59:59;101076.34;;;22.75;52.61
48517;BME280;34310;51.904;4.256;2023-07-02T07:02:27;101094.78;;;22.75;52.51
48517;BME280;34310;51.904;4.256;2023-07-02T07:04:55;101089.50;;;22.75;52.53
48517;BME280;34310;51.904;4.256;2023-07-02T07:07:22;101083.38;;;22.76;52.41
48517;BME280;34310;51.904;4.256;2023-07-02T07:09:49;101087.75;;;22.76;52.58
48517;BME280;34310;51.904;4.256;2023-07-02T07:12:17;101089.50;;;22.75;52.47
48517;BME280;34310;51.904;4.256;2023-07-02T07:14:44;101089.50;;;22.75;52.30
48517;BME280;34310;51.904;4.256;2023-07-02T07:17:12;101089.50;;;22.75;52.44
48517;BME280;34310;51.904;4.256;2023-07-02T07:19:39;101102.72;;;22.77;52.54
48517;BME280;34310;51.904;4.256;2023-07-02T07:22:06;101104.44;;;22.76;52.53
48517;BME280;34310;51.904;4.256;2023-07-02T07:24:34;101110.59;;;22.77;52.43
48517;BME280;34310;51.904;4.256;2023-07-02T07:27:01;101111.50;;;22.77;52.52
48517;BME280;34310;51.904;4.256;2023-07-02T07:29:29;101107.06;;;22.76;52.29
48517;BME280;34310;51.904;4.256;2023-07-02T07:31:56;101119.38;;;22.77;52.30
48517;BME280;34310;51.904;4.256;2023-07-02T07:34:23;101119.44;;;22.79;52.50
48517;BME280;34310;51.904;4.256;2023-07-02T07:36:51;101125.53;;;22.78;52.58
48517;BME280;34310;51.904;4.256;2023-07-02T07:39:18;101133.47;;;22.79;52.34
48517;BME280;34310;51.904;4.256;2023-07-02T07:41:48;101120.31;;;22.79;52.43
48517;BME280;34310;51.904;4.256;2023-07-02T07:44:16;101123.84;;;22.80;52.56
48517;BME280;34310;51.904;4.256;2023-07-02T07:46:43;101118.56;;;22.80;52.43
48517;BME280;34310;51.904;4.256;2023-07-02T07:49:11;101127.38;;;22.80;52.41
48517;BME280;34310;51.904;4.256;2023-07-02T07:51:38;101124.72;;;22.80;52.47
48517;BME280;34310;51.904;4.256;2023-07-02T07:54:06;101122.16;;;22.82;52.30
48517;BME280;34310;51.904;4.256;2023-07-02T07:56:33;101134.44;;;22.81;52.44
48517;BME280;34310;51.904;4.256;2023-07-02T07:59:01;101130.00;;;22.80;52.43
48517;BME280;34310;51.904;4.256;2023-07-02T08:01:28;101133.59;;;22.82;52.36
48517;BME280;34310;51.904;4.256;2023-07-02T08:03:55;101125.69;;;22.82;52.54
48517;BME280;34310;51.904;4.256;2023-07-02T08:06:23;101127.44;;;22.82;52.28
48517;BME280;34310;51.904;4.256;2023-07-02T08:08:51;101123.94;;;22.83;52.32
48517;BME280;34310;51.904;4.256;2023-07-02T08:11:18;101116.91;;;22.82;52.49
48517;BME280;34310;51.904;4.256;2023-07-02T08:13:45;101116.94;;;22.83;52.52
48517;BME280;34310;51.904;4.256;2023-07-02T08:16:13;101134.56;;;22.84;52.32
48517;BME280;34310;51.904;4.256;2023-07-02T08:18:40;101131.00;;;22.84;52.54
48517;BME280;34310;51.904;4.256;2023-07-02T08:21:08;101142.44;;;22.84;52.46
48517;BME280;34310;51.904;4.256;2023-07-02T08:23:35;101137.19;;;22.84;52.44
48517;BME280;34310;51.904;4.256;2023-07-02T08:26:03;101131.91;;;22.84;52.47
48517;BME280;34310;51.904;4.256;2023-07-02T08:28:30;101138.06;;;22.85;52.27
48517;BME280;34310;51.904;4.256;2023-07-02T08:30:57;101138.97;;;22.85;52.20
48517;BME280;34310;51.904;4.256;2023-07-02T08:33:25;101141.59;;;22.85;52.43
48517;BME280;34310;51.904;4.256;2023-07-02T08:35:53;101143.38;;;22.86;52.52
48517;BME280;34310;51.904;4.256;2023-07-02T08:38:20;101149.53;;;22.87;52.52
48517;BME280;34310;51.904;4.256;2023-07-02T08:40:49;101152.16;;;22.87;52.46
48517;BME280;34310;51.904;4.256;2023-07-02T08:43:17;101152.16;;;22.87;52.52
48517;BME280;34310;51.904;4.256;2023-07-02T08:45:45;101148.69;;;22.88;52.44
48517;BME280;34310;51.904;4.256;2023-07-02T08:48:13;101153.06;;;22.88;52.50
48517;BME280;34310;51.904;4.256;2023-07-02T08:50:42;101157.44;;;22.87;52.28
48517;BME280;34310;51.904;4.256;2023-07-02T08:53:10;101171.53;;;22.89;52.06
48517;BME280;34310;51.904;4.256;2023-07-02T08:55:37;101166.25;;;22.89;52.21
48517;BME280;34310;51.904;4.256;2023-07-02T08:58:05;101169.78;;;22.90;52.36
48517;BME280;34310;51.904;4.256;2023-07-02T09:00:32;101168.91;;;22.89;52.21
48517;BME280;34310;51.904;4.256;2023-07-02T09:03:14;101167.16;;;22.90;52.38
48517;BME280;34310;51.904;4.256;2023-07-02T09:05:52;101176.81;;;22.91;52.35
48517;BME280;34310;51.904;4.256;2023-07-02T09:08:29;101168.94;;;22.91;52.47
48517;BME280;34310;51.904;4.256;2023-07-02T09:11:16;101162.81;;;22.92;52.37
48517;BME280;34310;51.904;4.256;2023-07-02T09:13:49;101179.50;;;22.92;52.39
48517;BME280;34310;51.904;4.256;2023-07-02T09:16:30;101183.91;;;22.93;52.37
48517;BME280;34310;51.904;4.256;2023-07-02T09:19:05;101178.66;;;22.93;52.27
48517;BME280;34310;51.904;4.256;2023-07-02T09:21:46;101184.81;;;22.94;52.16
48517;BME280;34310;51.904;4.256;2023-07-02T09:24:21;101183.91;;;22.93;52.46
48517;BME280;34310;51.904;4.256;2023-07-02T09:29:23;101183.06;;;22.94;52.42
48517;BME280;34310;51.904;4.256;2023-07-02T09:31:51;101192.75;;;22.95;52.43
48517;BME280;34310;51.904;4.256;2023-07-02T09:34:36;101174.38;;;22.98;52.20
48517;BME280;34310;51.904;4.256;2023-07-02T09:37:05;101180.50;;;22.97;52.22
48517;BME280;34310;51.904;4.256;2023-07-02T09:39:35;101180.47;;;22.96;52.46
48517;BME280;34310;51.904;4.256;2023-07-02T09:42:05;101184.00;;;22.96;52.21
48517;BME280;34310;51.904;4.256;2023-07-02T09:44:34;101184.00;;;22.96;52.39
48517;BME280;34310;51.904;4.256;2023-07-02T09:49:42;101173.50;;;22.98;52.41
48517;BME280;34310;51.904;4.256;2023-07-02T09:52:13;101182.28;;;22.98;52.47
48517;BME280;34310;51.904;4.256;2023-07-02T09:54:42;101184.91;;;22.98;52.27
48517;BME280;34310;51.904;4.256;2023-07-02T09:57:09;101184.97;;;23.00;52.27
48517;BME280;34310;51.904;4.256;2023-07-02T09:59:39;101185.81;;;22.99;52.44
48517;BME280;34310;51.904;4.256;2023-07-02T10:02:08;101189.34;;;22.99;52.27
48517;BME280;34310;51.904;4.256;2023-07-02T10:04:42;101186.69;;;22.99;52.26
48517;BME280;34310;51.904;4.256;2023-07-02T10:07:11;101197.28;;;23.01;52.43
48517;BME280;34310;51.904;4.256;2023-07-02T10:09:44;101192.91;;;23.01;52.43
48517;BME280;34310;51.904;4.256;2023-07-02T10:12:22;101192.91;;;23.01;52.39
48517;BME280;34310;51.904;4.256;2023-07-02T10:14:52;101199.94;;;23.02;52.23
48517;BME280;34310;51.904;4.256;2023-07-02T10:17:38;101203.47;;;23.03;52.43
48517;BME280;34310;51.904;4.256;2023-07-02T10:20:07;101201.72;;;23.03;52.52
48517;BME280;34310;51.904;4.256;2023-07-02T10:22:49;101200.88;;;23.04;52.25
48517;BME280;34310;51.904;4.256;2023-07-02T10:25:33;101202.63;;;23.04;52.37
48517;BME280;34310;51.904;4.256;2023-07-02T10:28:13;101205.25;;;23.04;52.57
48517;BME280;34310;51.904;4.256;2023-07-02T10:30:41;101210.56;;;23.05;52.57
48517;BME280;34310;51.904;4.256;2023-07-02T10:35:40;101206.19;;;23.06;52.30
48517;BME280;34310;51.904;4.256;2023-07-02T10:38:18;101207.91;;;23.05;52.29
48517;BME280;34310;51.904;4.256;2023-07-02T10:40:46;101211.44;;;23.06;52.23
48517;BME280;34310;51.904;4.256;2023-07-02T10:43:23;101205.31;;;23.07;52.31
48517;BME280;34310;51.904;4.256;2023-07-02T10:45:51;101208.84;;;23.07;52.30
48517;BME280;34310;51.904;4.256;2023-07-02T10:48:19;101209.69;;;23.06;52.22
48517;BME280;34310;51.904;4.256;2023-07-02T10:50:46;101201.84;;;23.08;52.28
48517;BME280;34310;51.904;4.256;2023-07-02T10:53:18;101197.47;;;23.08;52.35
48517;BME280;34310;51.904;4.256;2023-07-02T10:55:52;101202.72;;;23.08;52.40
48517;BME280;34310;51.904;4.256;2023-07-02T10:58:23;101211.53;;;23.09;52.15
48517;BME280;34310;51.904;4.256;2023-07-02T11:00:51;101211.53;;;23.09;52.48
48517;BME280;34310;51.904;4.256;2023-07-02T11:03:24;101208.03;;;23.10;52.22
48517;BME280;34310;51.904;4.256;2023-07-02T11:05:52;101210.66;;;23.10;52.28
48517;BME280;34310;51.904;4.256;2023-07-02T11:08:21;101209.81;;;23.11;52.23
48517;BME280;34310;51.904;4.256;2023-07-02T11:10:50;101208.97;;;23.12;52.35
48517;BME280;34310;51.904;4.256;2023-07-02T11:13:19;101204.59;;;23.12;52.35
48517;BME280;34310;51.904;4.256;2023-07-02T11:15:47;101222.13;;;23.12;52.17
48517;BME280;34310;51.904;4.256;2023-07-02T11:18:17;101218.66;;;23.13;52.18
48517;BME280;34310;51.904;4.256;2023-07-02T11:20:46;101215.19;;;23.14;52.33
48517;BME280;34310;51.904;4.256;2023-07-02T11:23:24;101220.47;;;23.14;52.34
48517;BME280;34310;51.904;4.256;2023-07-02T11:26:10;101224.88;;;23.15;52.17
48517;BME280;34310;51.904;4.256;2023-07-02T11:28:49;101226.66;;;23.16;52.37
48517;BME280;34310;51.904;4.256;2023-07-02T11:31:25;101230.19;;;23.16;52.14
48517;BME280;34310;51.904;4.256;2023-07-02T11:33:53;101220.53;;;23.17;52.28
48517;BME280;34310;51.904;4.256;2023-07-02T11:36:23;101221.38;;;23.16;52.35
48517;BME280;34310;51.904;4.256;2023-07-02T11:38:55;101232.00;;;23.19;52.37
48517;BME280;34310;51.904;4.256;2023-07-02T11:41:23;101222.31;;;23.18;52.12
48517;BME280;34310;51.904;4.256;2023-07-02T11:43:50;101220.56;;;23.18;51.97
48517;BME280;34310;51.904;4.256;2023-07-02T11:46:17;101220.59;;;23.20;52.07
48517;BME280;34310;51.904;4.256;2023-07-02T11:48:45;101229.41;;;23.21;52.29
48517;BME280;34310;51.904;4.256;2023-07-02T11:51:12;101225.03;;;23.21;52.09
48517;BME280;34310;51.904;4.256;2023-07-02T11:53:39;101223.28;;;23.22;52.23
48517;BME280;34310;51.904;4.256;2023-07-02T11:56:07;101218.06;;;23.23;52.31
48517;BME280;34310;51.904;4.256;2023-07-02T11:58:34;101226.84;;;23.24;52.04
48517;BME280;34310;51.904;4.256;2023-07-02T12:01:02;101233.00;;;23.24;52.18
48517;BME280;34310;51.904;4.256;2023-07-02T12:03:29;101234.78;;;23.25;52.07
48517;BME280;34310;51.904;4.256;2023-07-02T12:05:57;101233.03;;;23.26;52.20
48517;BME280;34310;51.904;4.256;2023-07-02T12:08:25;101241.84;;;23.26;51.99
48517;BME280;34310;51.904;4.256;2023-07-02T12:10:53;101243.63;;;23.27;52.01
48517;BME280;34310;51.904;4.256;2023-07-02T12:13:21;101228.69;;;23.28;52.00
48517;BME280;34310;51.904;4.256;2023-07-02T12:15:48;101235.75;;;23.29;52.25
48517;BME280;34310;51.904;4.256;2023-07-02T12:18:18;101232.25;;;23.30;52.05
48517;BME280;34310;51.904;4.256;2023-07-02T12:20:45;101247.22;;;23.31;52.26
48517;BME280;34310;51.904;4.256;2023-07-02T12:23:13;101246.38;;;23.32;52.24
48517;BME280;34310;51.904;4.256;2023-07-02T12:25:40;101246.41;;;23.33;51.92
48517;BME280;34310;51.904;4.256;2023-07-02T12:28:07;101249.03;;;23.33;52.15
48517;BME280;34310;51.904;4.256;2023-07-02T12:30:38;101252.56;;;23.34;52.04
48517;BME280;34310;51.904;4.256;2023-07-02T12:33:06;101237.66;;;23.34;52.05
48517;BME280;34310;51.904;4.256;2023-07-02T12:35:33;101243.84;;;23.36;52.28
48517;BME280;34310;51.904;4.256;2023-07-02T12:38:00;101257.94;;;23.38;52.20
48517;BME280;34310;51.904;4.256;2023-07-02T12:40:30;101251.78;;;23.38;52.01
48517;BME280;34310;51.904;4.256;2023-07-02T12:42:58;101246.56;;;23.39;51.97
48517;BME280;34310;51.904;4.256;2023-07-02T12:45:25;101261.50;;;23.40;52.19
48517;BME280;34310;51.904;4.256;2023-07-02T12:47:53;101247.47;;;23.41;52.27
48517;BME280;34310;51.904;4.256;2023-07-02T12:50:20;101251.03;;;23.42;51.94
48517;BME280;34310;51.904;4.256;2023-07-02T12:52:48;101251.94;;;23.42;52.20
48517;BME280;34310;51.904;4.256;2023-07-02T12:55:15;101262.53;;;23.45;52.23
48517;BME280;34310;51.904;4.256;2023-07-02T12:57:42;101259.00;;;23.45;51.95
48517;BME280;34310;51.904;4.256;2023-07-02T13:00:10;101256.41;;;23.46;52.07
48517;BME280;34310;51.904;4.256;2023-07-02T13:02:38;101257.31;;;23.47;52.02
48517;BME280;34310;51.904;4.256;2023-07-02T13:05:24;101260.88;;;23.49;51.91
48517;BME280;34310;51.904;4.256;2023-07-02T13:07:52;101280.22;;;23.49;51.97